sensor_id;sensor_type;location;lat;lon;timestamp;temperature;humidity
32612;DHT22;19030;49.478;8.986;2023-12-22T00:01:41;5.00;99.90
32612;DHT22;19030;49.478;8.986;2023-12-22T00:03:42;5.00;99.90
32612;DHT22;19030;49.478;8.986;2023-12-22T00:05:43;5.00;99.90
32612;DHT22;19030;49.478;8.986;2023-12-22T00:07:43;5.00;99.90
32612;DHT22;19030;49.478;8.986;2023-12-22T00:09:44;5.00;99.90
32612;DHT22;19030;49.478;8.986;2023-12-22T00:11:44;5.00;99.90
32612;DHT22;19030;49.478;8.986;2023-12-22T00:13:45;5.00;99.90
32612;DHT22;19030;49.478;8.986;2023-12-22T00:15:45;5.00;99.90
32612;DHT22;19030;49.478;8.986;2023-12-22T00:17:46;5.00;99.90
32612;DHT22;19030;49.478;8.986;2023-12-22T00:19:47;5.00;99.90
32612;DHT22;19030;49.478;8.986;2023-12-22T00:21:48;5.00;99.90
32612;DHT22;19030;49.478;8.986;2023-12-22T00:23:48;4.90;99.90
32612;DHT22;19030;49.478;8.986;2023-12-22T00:25:49;4.90;99.90
32612;DHT22;19030;49.478;8.986;2023-12-22T00:27:49;4.80;99.90
32612;DHT22;19030;49.478;8.986;2023-12-22T00:29:50;4.80;99.90
32612;DHT22;19030;49.478;8.986;2023-12-22T00:31:51;4.70;99.90
32612;DHT22;19030;49.478;8.986;2023-12-22T00:33:51;4.70;99.90
32612;DHT22;19030;49.478;8.986;2023-12-22T00:35:52;4.70;99.90
32612;DHT22;19030;49.478;8.986;2023-12-22T00:37:53;4.80;99.90
32612;DHT22;19030;49.478;8.986;2023-12-22T00:39:53;4.80;99.90
32612;DHT22;19030;49.478;8.986;2023-12-22T00:41:54;4.80;99.90
32612;DHT22;19030;49.478;8.986;2023-12-22T00:43:55;4.80;99.90
32612;DHT22;19030;49.478;8.986;2023-12-22T00:45:55;4.80;99.90
32612;DHT22;19030;49.478;8.986;2023-12-22T00:47:57;4.90;99.90
32612;DHT22;19030;49.478;8.986;2023-12-22T00:49:58;4.90;99.90
32612;DHT22;19030;49.478;8.986;2023-12-22T00:51:59;4.90;99.90
32612;DHT22;19030;49.478;8.986;2023-12-22T00:53:59;4.90;99.90
32612;DHT22;19030;49.478;8.986;2023-12-22T00:56:00;4.90;99.90
32612;DHT22;19030;49.478;8.986;2023-12-22T00:58:03;4.90;99.90
32612;DHT22;19030;49.478;8.986;2023-12-22T01:00:04;4.90;99.90
32612;DHT22;19030;49.478;8.986;2023-12-22T01:02:06;4.90;99.90
32612;DHT22;19030;49.478;8.986;2023-12-22T01:04:06;4.90;99.90
32612;DHT22;19030;49.478;8.986;2023-12-22T01:06:08;4.80;99.90
32612;DHT22;19030;49.478;8.986;2023-12-22T01:08:09;4.70;99.90
32612;DHT22;19030;49.478;8.986;2023-12-22T01:10:09;4.70;99.90
32612;DHT22;19030;49.478;8.986;2023-12-22T01:12:10;4.70;99.90
32612;DHT22;19030;49.478;8.986;2023-12-22T01:14:11;4.70;99.90
32612;DHT22;19030;49.478;8.986;2023-12-22T01:16:13;4.70;99.90
32612;DHT22;19030;49.478;8.986;2023-12-22T01:18:15;4.60;99.90
32612;DHT22;19030;49.478;8.986;2023-12-22T01:20:16;4.60;99.90
32612;DHT22;19030;49.478;8.986;2023-12-22T01:22:17;4.70;99.90
32612;DHT22;19030;49.478;8.986;2023-12-22T01:24:17;4.70;99.90
32612;DHT22;19030;49.478;8.986;2023-12-22T01:26:18;4.70;99.90
32612;DHT22;19030;49.478;8.986;2023-12-22T01:28:18;4.70;99.90
32612;DHT22;19030;49.478;8.986;2023-12-22T01:30:19;4.60;99.90
32612;DHT22;19030;49.478;8.986;2023-12-22T01:32:19;4.60;99.90
32612;DHT22;19030;49.478;8.986;2023-12-22T01:34:20;4.70;99.90
32612;DHT22;19030;49.478;8.986;2023-12-22T01:36:21;4.70;99.90
32612;DHT22;19030;49.478;8.986;2023-12-22T01:38:21;4.60;99.90
32612;DHT22;19030;49.478;8.986;2023-12-22T01:40:22;4.60;99.90
32612;DHT22;19030;49.478;8.986;2023-12-22T01:42:22;4.70;99.90
32612;DHT22;19030;49.478;8.986;2023-12-22T01:44:23;4.60;99.90
32612;DHT22;19030;49.478;8.986;2023-12-22T01:46:23;4.60;99.90
32612;DHT22;19030;49.478;8.986;2023-12-22T01:48:25;4.60;99.90
32612;DHT22;19030;49.478;8.986;2023-12-22T01:50:26;4.70;99.90
32612;DHT22;19030;49.478;8.986;2023-12-22T01:52:27;4.70;99.90
32612;DHT22;19030;49.478;8.986;2023-12-22T01:54:28;4.70;99.90
32612;DHT22;19030;49.478;8.986;2023-12-22T01:56:28;4.70;99.90
32612;DHT22;19030;49.478;8.986;2023-12-22T01:58:30;4.80;99.90
32612;DHT22;19030;49.478;8.986;2023-12-22T02:00:39;4.80;99.90
32612;DHT22;19030;49.478;8.986;2023-12-22T02:02:41;4.90;99.90
32612;DHT22;19030;49.478;8.986;2023-12-22T02:04:44;4.90;99.90
32612;DHT22;19030;49.478;8.986;2023-12-22T02:06:45;4.90;99.90
32612;DHT22;19030;49.478;8.986;2023-12-22T02:08:47;5.00;99.90
32612;DHT22;19030;49.478;8.986;2023-12-22T02:10:47;5.00;99.90
32612;DHT22;19030;49.478;8.986;2023-12-22T02:12:48;5.00;99.90
32612;DHT22;19030;49.478;8.986;2023-12-22T02:14:49;5.00;99.90
32612;DHT22;19030;49.478;8.986;2023-12-22T02:17:26;4.90;99.90
32612;DHT22;19030;49.478;8.986;2023-12-22T02:22:00;4.90;99.90
32612;DHT22;19030;49.478;8.986;2023-12-22T02:24:00;5.00;99.90
32612;DHT22;19030;49.478;8.986;2023-12-22T02:26:15;5.00;99.90
32612;DHT22;19030;49.478;8.986;2023-12-22T02:28:19;5.00;99.90
32612;DHT22;19030;49.478;8.986;2023-12-22T02:30:28;5.00;99.90
32612;DHT22;19030;49.478;8.986;2023-12-22T02:32:36;4.90;99.90
32612;DHT22;19030;49.478;8.986;2023-12-22T02:34:37;5.00;99.90
32612;DHT22;19030;49.478;8.986;2023-12-22T02:36:42;5.00;99.90
32612;DHT22;19030;49.478;8.986;2023-12-22T02:38:45;5.00;99.90
32612;DHT22;19030;49.478;8.986;2023-12-22T02:40:45;5.10;99.90
32612;DHT22;19030;49.478;8.986;2023-12-22T02:42:46;5.10;99.90
32612;DHT22;19030;49.478;8.986;2023-12-22T02:44:47;5.10;99.90
32612;DHT22;19030;49.478;8.986;2023-12-22T02:46:47;5.10;99.90
32612;DHT22;19030;49.478;8.986;2023-12-22T02:48:48;5.20;99.90
32612;DHT22;19030;49.478;8.986;2023-12-22T02:50:49;5.20;99.90
32612;DHT22;19030;49.478;8.986;2023-12-22T02:52:49;5.30;99.90
32612;DHT22;19030;49.478;8.986;2023-12-22T02:54:50;5.40;99.90
32612;DHT22;19030;49.478;8.986;2023-12-22T02:56:51;5.40;99.90
32612;DHT22;19030;49.478;8.986;2023-12-22T02:58:51;5.40;99.90
32612;DHT22;19030;49.478;8.986;2023-12-22T03:00:52;5.50;99.90
32612;DHT22;19030;49.478;8.986;2023-12-22T03:02:52;5.50;99.90
32612;DHT22;19030;49.478;8.986;2023-12-22T03:04:53;5.50;99.90
32612;DHT22;19030;49.478;8.986;2023-12-22T03:06:53;5.40;99.90
32612;DHT22;19030;49.478;8.986;2023-12-22T03:08:54;5.40;99.90
32612;DHT22;19030;49.478;8.986;2023-12-22T03:10:54;5.50;99.90
32612;DHT22;19030;49.478;8.986;2023-12-22T03:12:55;5.50;99.90
32612;DHT22;19030;49.478;8.986;2023-12-22T03:14:55;5.40;99.90
32612;DHT22;19030;49.478;8.986;2023-12-22T03:16:56;5.40;99.90
32612;DHT22;19030;49.478;8.986;2023-12-22T03:18:57;5.40;99.90
32612;DHT22;19030;49.478;8.986;2023-12-22T03:20:57;5.40;99.90
32612;DHT22;19030;49.478;8.986;2023-12-22T03:22:58;5.40;99.90
32612;DHT22;19030;49.478;8.986;2023-12-22T03:24:58;5.40;99.90
32612;DHT22;19030;49.478;8.986;2023-12-22T03:26:59;5.40;99.90
32612;DHT22;19030;49.478;8.986;2023-12-22T03:28:59;5.40;99.90
32612;DHT22;19030;49.478;8.986;2023-12-22T03:31:00;5.30;99.90
32612;DHT22;19030;49.478;8.986;2023-12-22T03:33:00;5.30;99.90
32612;DHT22;19030;49.478;8.986;2023-12-22T03:35:01;5.30;99.90
32612;DHT22;19030;49.478;8.986;2023-12-22T03:37:01;5.30;99.90
32612;DHT22;19030;49.478;8.986;2023-12-22T03:39:02;5.30;99.90
32612;DHT22;19030;49.478;8.986;2023-12-22T03:41:04;5.30;99.90
32612;DHT22;19030;49.478;8.986;2023-12-22T03:43:04;5.30;99.90
32612;DHT22;19030;49.478;8.986;2023-12-22T03:45:05;5.30;99.90
32612;DHT22;19030;49.478;8.986;2023-12-22T03:47:06;5.30;99.90
32612;DHT22;19030;49.478;8.986;2023-12-22T03:49:07;5.30;99.90
32612;DHT22;19030;49.478;8.986;2023-12-22T03:51:08;5.30;99.90
32612;DHT22;19030;49.478;8.986;2023-12-22T03:53:10;5.30;99.90
32612;DHT22;19030;49.478;8.986;2023-12-22T03:55:11;5.40;99.90
32612;DHT22;19030;49.478;8.986;2023-12-22T03:57:12;5.40;99.90
32612;DHT22;19030;49.478;8.986;2023-12-22T03:59:12;5.40;99.90
32612;DHT22;19030;49.478;8.986;2023-12-22T04:01:14;5.50;99.90
32612;DHT22;19030;49.478;8.986;2023-12-22T04:03:15;5.50;99.90
32612;DHT22;19030;49.478;8.986;2023-12-22T04:05:15;5.50;99.90
32612;DHT22;19030;49.478;8.986;2023-12-22T04:07:16;5.50;99.90
32612;DHT22;19030;49.478;8.986;2023-12-22T04:09:16;5.50;99.90
32612;DHT22;19030;49.478;8.986;2023-12-22T04:11:17;5.50;99.90
32612;DHT22;19030;49.478;8.986;2023-12-22T04:13:17;5.40;99.90
32612;DHT22;19030;49.478;8.986;2023-12-22T04:15:18;5.40;99.90
32612;DHT22;19030;49.478;8.986;2023-12-22T04:17:19;5.50;99.90
32612;DHT22;19030;49.478;8.986;2023-12-22T04:19:19;5.40;99.90
32612;DHT22;19030;49.478;8.986;2023-12-22T04:21:20;5.50;99.90
32612;DHT22;19030;49.478;8.986;2023-12-22T04:23:20;5.40;99.90
32612;DHT22;19030;49.478;8.986;2023-12-22T04:25:21;5.50;99.90
32612;DHT22;19030;49.478;8.986;2023-12-22T04:27:23;5.50;99.90
32612;DHT22;19030;49.478;8.986;2023-12-22T04:29:23;5.40;99.90
32612;DHT22;19030;49.478;8.986;2023-12-22T04:31:24;5.50;99.90
32612;DHT22;19030;49.478;8.986;2023-12-22T04:33:24;5.40;99.90
32612;DHT22;19030;49.478;8.986;2023-12-22T04:35:25;5.50;99.90
32612;DHT22;19030;49.478;8.986;2023-12-22T04:37:26;5.50;99.90
32612;DHT22;19030;49.478;8.986;2023-12-22T04:39:26;5.50;99.90
32612;DHT22;19030;49.478;8.986;2023-12-22T04:41:27;5.40;99.90
32612;DHT22;19030;49.478;8.986;2023-12-22T04:43:27;5.40;99.90
32612;DHT22;19030;49.478;8.986;2023-12-22T04:45:28;5.40;99.90
32612;DHT22;19030;49.478;8.986;2023-12-22T04:47:28;5.40;99.90
32612;DHT22;19030;49.478;8.986;2023-12-22T04:49:29;5.40;99.90
32612;DHT22;19030;49.478;8.986;2023-12-22T04:51:29;5.40;99.90
32612;DHT22;19030;49.478;8.986;2023-12-22T04:53:30;5.40;99.90
32612;DHT22;19030;49.478;8.986;2023-12-22T04:55:30;5.40;99.90
32612;DHT22;19030;49.478;8.986;2023-12-22T04:57:31;5.40;99.90
32612;DHT22;19030;49.478;8.986;2023-12-22T04:59:31;5.40;99.90
32612;DHT22;19030;49.478;8.986;2023-12-22T05:01:32;5.40;99.90
32612;DHT22;19030;49.478;8.986;2023-12-22T05:03:32;5.40;99.90
32612;DHT22;19030;49.478;8.986;2023-12-22T05:05:33;5.40;99.90
32612;DHT22;19030;49.478;8.986;2023-12-22T05:07:34;5.40;99.90
32612;DHT22;19030;49.478;8.986;2023-12-22T05:09:34;5.30;99.90
32612;DHT22;19030;49.478;8.986;2023-12-22T05:11:35;5.30;99.90
32612;DHT22;19030;49.478;8.986;2023-12-22T05:13:35;5.30;99.90
32612;DHT22;19030;49.478;8.986;2023-12-22T05:15:36;5.30;99.90
32612;DHT22;19030;49.478;8.986;2023-12-22T05:17:37;5.20;99.90
32612;DHT22;19030;49.478;8.986;2023-12-22T05:19:38;5.20;99.90
32612;DHT22;19030;49.478;8.986;2023-12-22T05:21:38;5.30;99.90
32612;DHT22;19030;49.478;8.986;2023-12-22T05:23:39;5.20;99.90
32612;DHT22;19030;49.478;8.986;2023-12-22T05:25:40;5.20;99.90
32612;DHT22;19030;49.478;8.986;2023-12-22T05:27:41;5.30;99.90
32612;DHT22;19030;49.478;8.986;2023-12-22T05:29:43;5.30;99.90
32612;DHT22;19030;49.478;8.986;2023-12-22T05:31:44;5.30;99.90
32612;DHT22;19030;49.478;8.986;2023-12-22T05:33:44;5.30;99.90
32612;DHT22;19030;49.478;8.986;2023-12-22T05:35:45;5.30;99.90
32612;DHT22;19030;49.478;8.986;2023-12-22T05:37:45;5.30;99.90
32612;DHT22;19030;49.478;8.986;2023-12-22T05:39:46;5.30;99.90
32612;DHT22;19030;49.478;8.986;2023-12-22T05:41:46;5.40;99.90
32612;DHT22;19030;49.478;8.986;2023-12-22T05:43:47;5.40;99.90
32612;DHT22;19030;49.478;8.986;2023-12-22T05:45:47;5.40;99.90
32612;DHT22;19030;49.478;8.986;2023-12-22T05:47:48;5.50;99.90
32612;DHT22;19030;49.478;8.986;2023-12-22T05:49:48;5.60;99.90
32612;DHT22;19030;49.478;8.986;2023-12-22T05:51:49;5.60;99.90
32612;DHT22;19030;49.478;8.986;2023-12-22T05:53:51;5.60;99.90
32612;DHT22;19030;49.478;8.986;2023-12-22T05:55:53;5.60;99.90
32612;DHT22;19030;49.478;8.986;2023-12-22T05:57:54;5.60;99.90
32612;DHT22;19030;49.478;8.986;2023-12-22T05:59:55;5.60;99.90
32612;DHT22;19030;49.478;8.986;2023-12-22T06:01:56;5.50;99.90
32612;DHT22;19030;49.478;8.986;2023-12-22T06:03:56;5.50;99.90
32612;DHT22;19030;49.478;8.986;2023-12-22T06:05:57;5.40;99.90
32612;DHT22;19030;49.478;8.986;2023-12-22T06:07:58;5.40;99.90
32612;DHT22;19030;49.478;8.986;2023-12-22T06:09:58;5.30;99.90
32612;DHT22;19030;49.478;8.986;2023-12-22T06:11:59;5.30;99.90
32612;DHT22;19030;49.478;8.986;2023-12-22T06:13:59;5.30;99.90
32612;DHT22;19030;49.478;8.986;2023-12-22T06:16:00;5.30;99.90
32612;DHT22;19030;49.478;8.986;2023-12-22T06:18:00;5.20;99.90
32612;DHT22;19030;49.478;8.986;2023-12-22T06:20:01;5.20;99.90
32612;DHT22;19030;49.478;8.986;2023-12-22T06:22:02;5.20;99.90
32612;DHT22;19030;49.478;8.986;2023-12-22T06:24:02;5.20;99.90
32612;DHT22;19030;49.478;8.986;2023-12-22T06:26:12;5.20;99.90
32612;DHT22;19030;49.478;8.986;2023-12-22T06:28:12;5.20;99.90
32612;DHT22;19030;49.478;8.986;2023-12-22T06:30:13;5.30;99.90
32612;DHT22;19030;49.478;8.986;2023-12-22T06:32:14;5.30;99.90
32612;DHT22;19030;49.478;8.986;2023-12-22T06:34:14;5.40;99.90
32612;DHT22;19030;49.478;8.986;2023-12-22T06:38:19;5.50;99.90
32612;DHT22;19030;49.478;8.986;2023-12-22T06:40:20;5.50;99.90
32612;DHT22;19030;49.478;8.986;2023-12-22T06:42:21;5.50;99.90
32612;DHT22;19030;49.478;8.986;2023-12-22T06:44:21;5.50;99.90
32612;DHT22;19030;49.478;8.986;2023-12-22T06:46:23;5.50;99.90
32612;DHT22;19030;49.478;8.986;2023-12-22T06:48:27;5.40;99.90
32612;DHT22;19030;49.478;8.986;2023-12-22T06:50:29;5.50;99.90
32612;DHT22;19030;49.478;8.986;2023-12-22T06:52:30;5.50;99.90
32612;DHT22;19030;49.478;8.986;2023-12-22T06:54:34;5.50;99.90
32612;DHT22;19030;49.478;8.986;2023-12-22T06:56:35;5.50;99.90
32612;DHT22;19030;49.478;8.986;2023-12-22T06:58:35;5.50;99.90
32612;DHT22;19030;49.478;8.986;2023-12-22T07:00:36;5.50;99.90
32612;DHT22;19030;49.478;8.986;2023-12-22T07:02:38;5.50;99.90
32612;DHT22;19030;49.478;8.986;2023-12-22T07:04:39;5.60;99.90
32612;DHT22;19030;49.478;8.986;2023-12-22T07:06:39;5.60;99.90
32612;DHT22;19030;49.478;8.986;2023-12-22T07:08:41;5.60;99.90
32612;DHT22;19030;49.478;8.986;2023-12-22T07:10:43;5.70;99.90
32612;DHT22;19030;49.478;8.986;2023-12-22T07:12:43;5.80;99.90
32612;DHT22;19030;49.478;8.986;2023-12-22T07:14:44;5.90;99.90
32612;DHT22;19030;49.478;8.986;2023-12-22T07:16:44;6.00;99.90
32612;DHT22;19030;49.478;8.986;2023-12-22T07:18:45;5.90;99.90
32612;DHT22;19030;49.478;8.986;2023-12-22T07:20:45;6.00;99.90
32612;DHT22;19030;49.478;8.986;2023-12-22T07:22:46;5.90;99.90
32612;DHT22;19030;49.478;8.986;2023-12-22T07:24:47;5.90;99.90
32612;DHT22;19030;49.478;8.986;2023-12-22T07:26:47;5.90;99.90
32612;DHT22;19030;49.478;8.986;2023-12-22T07:28:48;6.00;99.90
32612;DHT22;19030;49.478;8.986;2023-12-22T07:30:48;6.10;99.90
32612;DHT22;19030;49.478;8.986;2023-12-22T07:32:49;6.10;99.90
32612;DHT22;19030;49.478;8.986;2023-12-22T07:34:52;6.20;99.90
32612;DHT22;19030;49.478;8.986;2023-12-22T07:36:53;6.30;99.90
32612;DHT22;19030;49.478;8.986;2023-12-22T07:38:53;6.30;99.90
32612;DHT22;19030;49.478;8.986;2023-12-22T07:40:55;6.40;99.90
32612;DHT22;19030;49.478;8.986;2023-12-22T07:42:55;6.50;99.90
32612;DHT22;19030;49.478;8.986;2023-12-22T07:44:56;6.60;99.90
32612;DHT22;19030;49.478;8.986;2023-12-22T07:46:59;6.60;99.90
32612;DHT22;19030;49.478;8.986;2023-12-22T07:49:00;6.70;99.90
32612;DHT22;19030;49.478;8.986;2023-12-22T07:51:01;6.70;99.90
32612;DHT22;19030;49.478;8.986;2023-12-22T07:53:02;6.70;99.90
32612;DHT22;19030;49.478;8.986;2023-12-22T07:55:07;6.80;99.90
32612;DHT22;19030;49.478;8.986;2023-12-22T07:57:09;6.80;99.90
32612;DHT22;19030;49.478;8.986;2023-12-22T07:59:10;6.80;99.90
32612;DHT22;19030;49.478;8.986;2023-12-22T08:01:11;6.80;99.90
32612;DHT22;19030;49.478;8.986;2023-12-22T08:03:11;6.90;99.90
32612;DHT22;19030;49.478;8.986;2023-12-22T08:05:13;6.80;99.90
32612;DHT22;19030;49.478;8.986;2023-12-22T08:07:13;6.80;99.90
32612;DHT22;19030;49.478;8.986;2023-12-22T08:09:14;6.80;99.90
32612;DHT22;19030;49.478;8.986;2023-12-22T08:11:14;6.80;99.90
32612;DHT22;19030;49.478;8.986;2023-12-22T08:13:15;6.80;99.90
32612;DHT22;19030;49.478;8.986;2023-12-22T08:15:17;6.80;99.90
32612;DHT22;19030;49.478;8.986;2023-12-22T08:17:17;6.80;99.90
32612;DHT22;19030;49.478;8.986;2023-12-22T08:19:18;6.80;99.90
32612;DHT22;19030;49.478;8.986;2023-12-22T08:21:18;6.80;99.90
32612;DHT22;19030;49.478;8.986;2023-12-22T08:23:19;6.80;99.90
32612;DHT22;19030;49.478;8.986;2023-12-22T08:25:19;6.90;99.90
32612;DHT22;19030;49.478;8.986;2023-12-22T08:27:20;6.80;99.90
32612;DHT22;19030;49.478;8.986;2023-12-22T08:29:21;6.80;99.90
32612;DHT22;19030;49.478;8.986;2023-12-22T08:31:21;6.90;99.90
32612;DHT22;19030;49.478;8.986;2023-12-22T08:33:22;6.90;99.90
32612;DHT22;19030;49.478;8.986;2023-12-22T08:35:22;7.00;99.90
32612;DHT22;19030;49.478;8.986;2023-12-22T08:37:23;7.10;99.90
32612;DHT22;19030;49.478;8.986;2023-12-22T08:39:23;7.20;99.90
32612;DHT22;19030;49.478;8.986;2023-12-22T08:41:25;7.30;99.90
32612;DHT22;19030;49.478;8.986;2023-12-22T08:43:25;7.30;99.90
32612;DHT22;19030;49.478;8.986;2023-12-22T08:45:26;7.30;99.90
32612;DHT22;19030;49.478;8.986;2023-12-22T08:47:28;7.20;99.90
32612;DHT22;19030;49.478;8.986;2023-12-22T08:49:29;7.30;99.90
32612;DHT22;19030;49.478;8.986;2023-12-22T08:51:29;7.30;99.90
32612;DHT22;19030;49.478;8.986;2023-12-22T08:53:30;7.30;99.90
32612;DHT22;19030;49.478;8.986;2023-12-22T08:55:34;7.30;99.90
32612;DHT22;19030;49.478;8.986;2023-12-22T08:57:34;7.30;99.90
32612;DHT22;19030;49.478;8.986;2023-12-22T08:59:35;7.30;99.90
32612;DHT22;19030;49.478;8.986;2023-12-22T09:01:35;7.40;99.90
32612;DHT22;19030;49.478;8.986;2023-12-22T09:03:36;7.30;99.90
32612;DHT22;19030;49.478;8.986;2023-12-22T09:05:42;7.20;99.90
32612;DHT22;19030;49.478;8.986;2023-12-22T09:07:42;7.10;99.90
32612;DHT22;19030;49.478;8.986;2023-12-22T09:09:44;7.10;99.90
32612;DHT22;19030;49.478;8.986;2023-12-22T09:11:45;7.00;99.90
32612;DHT22;19030;49.478;8.986;2023-12-22T09:13:46;7.00;99.90
32612;DHT22;19030;49.478;8.986;2023-12-22T09:15:46;6.90;99.90
32612;DHT22;19030;49.478;8.986;2023-12-22T09:17:48;6.90;99.90
32612;DHT22;19030;49.478;8.986;2023-12-22T09:19:49;6.90;99.90
32612;DHT22;19030;49.478;8.986;2023-12-22T09:21:50;6.80;99.90
32612;DHT22;19030;49.478;8.986;2023-12-22T09:23:50;6.70;99.90
32612;DHT22;19030;49.478;8.986;2023-12-22T09:25:51;6.80;99.90
32612;DHT22;19030;49.478;8.986;2023-12-22T09:27:51;6.70;99.90
32612;DHT22;19030;49.478;8.986;2023-12-22T09:29:52;6.70;99.90
32612;DHT22;19030;49.478;8.986;2023-12-22T09:31:52;6.70;99.90
32612;DHT22;19030;49.478;8.986;2023-12-22T09:33:53;6.70;99.90
32612;DHT22;19030;49.478;8.986;2023-12-22T09:35:54;6.70;99.90
32612;DHT22;19030;49.478;8.986;2023-12-22T09:37:54;6.70;99.90
32612;DHT22;19030;49.478;8.986;2023-12-22T09:39:55;6.70;99.90
32612;DHT22;19030;49.478;8.986;2023-12-22T09:41:56;6.70;99.90
32612;DHT22;19030;49.478;8.986;2023-12-22T09:43:58;6.70;99.90
32612;DHT22;19030;49.478;8.986;2023-12-22T09:45:59;6.70;99.90
32612;DHT22;19030;49.478;8.986;2023-12-22T09:48:01;6.70;99.90
32612;DHT22;19030;49.478;8.986;2023-12-22T09:50:02;6.70;99.90
32612;DHT22;19030;49.478;8.986;2023-12-22T09:52:04;6.70;99.90
32612;DHT22;19030;49.478;8.986;2023-12-22T09:54:07;6.70;99.90
32612;DHT22;19030;49.478;8.986;2023-12-22T09:56:07;6.70;99.90
32612;DHT22;19030;49.478;8.986;2023-12-22T09:58:09;6.80;99.90
32612;DHT22;19030;49.478;8.986;2023-12-22T10:00:11;6.80;99.90
32612;DHT22;19030;49.478;8.986;2023-12-22T10:02:13;6.80;99.90
32612;DHT22;19030;49.478;8.986;2023-12-22T10:04:14;6.80;99.90
32612;DHT22;19030;49.478;8.986;2023-12-22T10:06:15;6.80;99.90
32612;DHT22;19030;49.478;8.986;2023-12-22T10:08:18;6.80;99.90
32612;DHT22;19030;49.478;8.986;2023-12-22T10:10:21;6.80;99.90
32612;DHT22;19030;49.478;8.986;2023-12-22T10:12:23;6.80;99.90
32612;DHT22;19030;49.478;8.986;2023-12-22T10:14:24;6.80;99.90
32612;DHT22;19030;49.478;8.986;2023-12-22T10:16:27;6.90;99.90
32612;DHT22;19030;49.478;8.986;2023-12-22T10:18:28;6.90;99.90
32612;DHT22;19030;49.478;8.986;2023-12-22T10:20:29;6.90;99.90
32612;DHT22;19030;49.478;8.986;2023-12-22T10:22:29;7.00;99.90
32612;DHT22;19030;49.478;8.986;2023-12-22T10:24:56;7.00;99.90
32612;DHT22;19030;49.478;8.986;2023-12-22T10:26:57;7.00;99.90
32612;DHT22;19030;49.478;8.986;2023-12-22T10:28:57;7.10;99.90
32612;DHT22;19030;49.478;8.986;2023-12-22T10:30:58;7.10;99.90
32612;DHT22;19030;49.478;8.986;2023-12-22T10:33:06;7.10;99.90
32612;DHT22;19030;49.478;8.986;2023-12-22T10:35:08;7.20;99.90
32612;DHT22;19030;49.478;8.986;2023-12-22T10:37:10;7.20;99.90
32612;DHT22;19030;49.478;8.986;2023-12-22T10:39:10;7.20;99.90
32612;DHT22;19030;49.478;8.986;2023-12-22T10:41:11;7.20;99.90
32612;DHT22;19030;49.478;8.986;2023-12-22T10:43:11;7.20;99.90
32612;DHT22;19030;49.478;8.986;2023-12-22T10:45:13;7.20;99.90
32612;DHT22;19030;49.478;8.986;2023-12-22T10:47:14;7.30;99.90
32612;DHT22;19030;49.478;8.986;2023-12-22T10:49:14;7.40;99.90
32612;DHT22;19030;49.478;8.986;2023-12-22T10:51:17;7.50;99.90
32612;DHT22;19030;49.478;8.986;2023-12-22T10:53:18;7.50;99.90
32612;DHT22;19030;49.478;8.986;2023-12-22T10:55:21;7.50;99.90
32612;DHT22;19030;49.478;8.986;2023-12-22T10:57:22;7.50;99.90
32612;DHT22;19030;49.478;8.986;2023-12-22T10:59:23;7.60;99.90
32612;DHT22;19030;49.478;8.986;2023-12-22T11:01:29;7.60;99.90
32612;DHT22;19030;49.478;8.986;2023-12-22T11:03:30;7.60;99.90
32612;DHT22;19030;49.478;8.986;2023-12-22T11:05:33;7.60;99.90
32612;DHT22;19030;49.478;8.986;2023-12-22T11:07:34;7.50;99.90
32612;DHT22;19030;49.478;8.986;2023-12-22T11:09:36;7.60;99.90
32612;DHT22;19030;49.478;8.986;2023-12-22T11:11:39;7.50;99.90
32612;DHT22;19030;49.478;8.986;2023-12-22T11:13:40;7.50;99.90
32612;DHT22;19030;49.478;8.986;2023-12-22T11:15:43;7.50;99.90
32612;DHT22;19030;49.478;8.986;2023-12-22T11:17:44;7.50;99.90
32612;DHT22;19030;49.478;8.986;2023-12-22T11:19:49;7.50;99.90
32612;DHT22;19030;49.478;8.986;2023-12-22T11:21:50;7.60;99.90
32612;DHT22;19030;49.478;8.986;2023-12-22T11:23:53;7.60;99.90
32612;DHT22;19030;49.478;8.986;2023-12-22T11:25:54;7.70;99.90
32612;DHT22;19030;49.478;8.986;2023-12-22T11:27:55;7.70;99.90
32612;DHT22;19030;49.478;8.986;2023-12-22T11:29:57;7.70;99.90
32612;DHT22;19030;49.478;8.986;2023-12-22T11:32:00;7.70;99.90
32612;DHT22;19030;49.478;8.986;2023-12-22T11:34:04;7.70;99.90
32612;DHT22;19030;49.478;8.986;2023-12-22T11:36:06;7.70;99.90
32612;DHT22;19030;49.478;8.986;2023-12-22T11:38:08;7.70;99.90
32612;DHT22;19030;49.478;8.986;2023-12-22T11:40:09;7.70;99.90
32612;DHT22;19030;49.478;8.986;2023-12-22T11:42:23;7.70;99.90
32612;DHT22;19030;49.478;8.986;2023-12-22T11:44:24;7.70;99.90
32612;DHT22;19030;49.478;8.986;2023-12-22T11:46:25;7.70;99.90
32612;DHT22;19030;49.478;8.986;2023-12-22T11:48:25;7.70;99.90
32612;DHT22;19030;49.478;8.986;2023-12-22T11:50:29;7.70;99.90
32612;DHT22;19030;49.478;8.986;2023-12-22T11:52:30;7.70;99.90
32612;DHT22;19030;49.478;8.986;2023-12-22T11:54:51;7.70;99.90
32612;DHT22;19030;49.478;8.986;2023-12-22T11:59:28;7.80;99.90
32612;DHT22;19030;49.478;8.986;2023-12-22T12:01:28;7.80;99.90
32612;DHT22;19030;49.478;8.986;2023-12-22T12:03:32;7.90;99.90
32612;DHT22;19030;49.478;8.986;2023-12-22T12:05:32;7.90;99.90
32612;DHT22;19030;49.478;8.986;2023-12-22T12:09:47;7.90;99.90
32612;DHT22;19030;49.478;8.986;2023-12-22T12:14:09;7.90;99.90
32612;DHT22;19030;49.478;8.986;2023-12-22T12:16:13;7.90;99.90
32612;DHT22;19030;49.478;8.986;2023-12-22T12:18:15;7.90;99.90
32612;DHT22;19030;49.478;8.986;2023-12-22T12:20:16;7.90;99.90
32612;DHT22;19030;49.478;8.986;2023-12-22T12:22:17;7.90;99.90
32612;DHT22;19030;49.478;8.986;2023-12-22T12:24:17;7.80;99.90
32612;DHT22;19030;49.478;8.986;2023-12-22T12:26:18;7.80;99.90
32612;DHT22;19030;49.478;8.986;2023-12-22T12:28:25;7.80;99.90
32612;DHT22;19030;49.478;8.986;2023-12-22T12:30:26;7.80;99.90
32612;DHT22;19030;49.478;8.986;2023-12-22T12:32:27;7.70;99.90
32612;DHT22;19030;49.478;8.986;2023-12-22T12:34:27;7.80;99.90
32612;DHT22;19030;49.478;8.986;2023-12-22T12:36:28;7.80;99.90
32612;DHT22;19030;49.478;8.986;2023-12-22T12:40:57;7.80;99.90
32612;DHT22;19030;49.478;8.986;2023-12-22T12:42:58;7.80;99.90
32612;DHT22;19030;49.478;8.986;2023-12-22T12:44:59;7.90;99.90
32612;DHT22;19030;49.478;8.986;2023-12-22T12:47:01;7.90;99.90
32612;DHT22;19030;49.478;8.986;2023-12-22T12:49:11;8.00;99.90
32612;DHT22;19030;49.478;8.986;2023-12-22T12:51:12;8.00;99.90
32612;DHT22;19030;49.478;8.986;2023-12-22T12:53:13;8.10;99.90
32612;DHT22;19030;49.478;8.986;2023-12-22T12:55:13;8.20;99.90
32612;DHT22;19030;49.478;8.986;2023-12-22T12:57:18;8.20;99.90
32612;DHT22;19030;49.478;8.986;2023-12-22T12:59:19;8.20;99.90
32612;DHT22;19030;49.478;8.986;2023-12-22T13:01:19;8.20;99.90
32612;DHT22;19030;49.478;8.986;2023-12-22T13:03:20;8.20;99.90
32612;DHT22;19030;49.478;8.986;2023-12-22T13:05:24;8.20;99.90
32612;DHT22;19030;49.478;8.986;2023-12-22T13:07:25;8.20;99.90
32612;DHT22;19030;49.478;8.986;2023-12-22T13:09:32;8.20;99.90
32612;DHT22;19030;49.478;8.986;2023-12-22T13:11:33;8.30;99.90
32612;DHT22;19030;49.478;8.986;2023-12-22T13:13:44;8.30;99.90